sensor_id;sensor_type;location;lat;lon;timestamp;temperature;humidity
41310;DHT22;27057;51.438;-0.010;2023-09-19T00:00:39;14.20;99.90
41310;DHT22;27057;51.438;-0.010;2023-09-19T00:03:09;14.10;99.90
41310;DHT22;27057;51.438;-0.010;2023-09-19T00:05:37;14.10;99.90
41310;DHT22;27057;51.438;-0.010;2023-09-19T00:08:11;14.10;99.90
41310;DHT22;27057;51.438;-0.010;2023-09-19T00:10:41;14.10;99.90
41310;DHT22;27057;51.438;-0.010;2023-09-19T00:13:09;14.10;99.90
41310;DHT22;27057;51.438;-0.010;2023-09-19T00:15:44;14.10;99.90
41310;DHT22;27057;51.438;-0.010;2023-09-19T00:18:18;14.10;99.90
41310;DHT22;27057;51.438;-0.010;2023-09-19T00:20:48;14.10;99.90
41310;DHT22;27057;51.438;-0.010;2023-09-19T00:23:16;14.10;99.90
41310;DHT22;27057;51.438;-0.010;2023-09-19T00:25:44;14.10;99.90
41310;DHT22;27057;51.438;-0.010;2023-09-19T00:28:12;14.10;99.90
41310;DHT22;27057;51.438;-0.010;2023-09-19T00:30:43;14.10;99.90
41310;DHT22;27057;51.438;-0.010;2023-09-19T00:33:11;14.20;99.90
41310;DHT22;27057;51.438;-0.010;2023-09-19T00:35:51;14.20;99.90
41310;DHT22;27057;51.438;-0.010;2023-09-19T00:38:20;14.20;99.90
41310;DHT22;27057;51.438;-0.010;2023-09-19T00:40:50;14.10;99.90
41310;DHT22;27057;51.438;-0.010;2023-09-19T00:43:21;14.10;99.90
41310;DHT22;27057;51.438;-0.010;2023-09-19T00:45:53;14.10;99.90
41310;DHT22;27057;51.438;-0.010;2023-09-19T00:48:22;14.20;99.90
41310;DHT22;27057;51.438;-0.010;2023-09-19T00:50:50;14.20;99.90
41310;DHT22;27057;51.438;-0.010;2023-09-19T00:53:20;14.20;99.90
41310;DHT22;27057;51.438;-0.010;2023-09-19T00:55:51;14.20;99.90
41310;DHT22;27057;51.438;-0.010;2023-09-19T00:58:19;14.20;99.90
41310;DHT22;27057;51.438;-0.010;2023-09-19T01:00:48;14.20;99.90
41310;DHT22;27057;51.438;-0.010;2023-09-19T01:03:17;14.20;99.90
41310;DHT22;27057;51.438;-0.010;2023-09-19T01:05:46;14.10;99.90
41310;DHT22;27057;51.438;-0.010;2023-09-19T01:08:13;14.10;99.90
41310;DHT22;27057;51.438;-0.010;2023-09-19T01:10:51;14.10;99.90
41310;DHT22;27057;51.438;-0.010;2023-09-19T01:16:32;14.20;99.90
41310;DHT22;27057;51.438;-0.010;2023-09-19T01:22:00;14.10;99.90
41310;DHT22;27057;51.438;-0.010;2023-09-19T01:27:43;14.10;99.90
41310;DHT22;27057;51.438;-0.010;2023-09-19T01:30:20;14.10;99.90
41310;DHT22;27057;51.438;-0.010;2023-09-19T01:32:52;14.10;99.90
41310;DHT22;27057;51.438;-0.010;2023-09-19T01:35:19;14.10;99.90
41310;DHT22;27057;51.438;-0.010;2023-09-19T01:37:47;14.20;99.90
41310;DHT22;27057;51.438;-0.010;2023-09-19T01:40:17;14.10;99.90
41310;DHT22;27057;51.438;-0.010;2023-09-19T01:42:58;14.10;99.90
41310;DHT22;27057;51.438;-0.010;2023-09-19T01:48:12;14.10;99.90
41310;DHT22;27057;51.438;-0.010;2023-09-19T01:51:00;14.10;99.90
41310;DHT22;27057;51.438;-0.010;2023-09-19T01:53:55;14.10;99.90
41310;DHT22;27057;51.438;-0.010;2023-09-19T01:56:44;14.10;99.90
41310;DHT22;27057;51.438;-0.010;2023-09-19T01:59:21;14.10;99.90
41310;DHT22;27057;51.438;-0.010;2023-09-19T02:01:49;14.10;99.90
41310;DHT22;27057;51.438;-0.010;2023-09-19T02:04:18;14.10;99.90
41310;DHT22;27057;51.438;-0.010;2023-09-19T02:06:45;14.10;99.90
41310;DHT22;27057;51.438;-0.010;2023-09-19T02:09:15;14.10;99.90
41310;DHT22;27057;51.438;-0.010;2023-09-19T02:11:42;14.10;99.90
41310;DHT22;27057;51.438;-0.010;2023-09-19T02:14:10;14.20;99.90
41310;DHT22;27057;51.438;-0.010;2023-09-19T02:16:37;14.10;99.90
41310;DHT22;27057;51.438;-0.010;2023-09-19T02:19:05;14.10;99.90
41310;DHT22;27057;51.438;-0.010;2023-09-19T02:21:33;14.10;99.90
41310;DHT22;27057;51.438;-0.010;2023-09-19T02:24:00;14.10;99.90
41310;DHT22;27057;51.438;-0.010;2023-09-19T02:26:28;14.10;99.90
41310;DHT22;27057;51.438;-0.010;2023-09-19T02:28:55;14.10;99.90
41310;DHT22;27057;51.438;-0.010;2023-09-19T02:31:23;14.10;99.90
41310;DHT22;27057;51.438;-0.010;2023-09-19T02:33:50;14.10;99.90
41310;DHT22;27057;51.438;-0.010;2023-09-19T02:36:17;14.10;99.90
41310;DHT22;27057;51.438;-0.010;2023-09-19T02:38:45;14.10;99.90
41310;DHT22;27057;51.438;-0.010;2023-09-19T02:41:12;14.10;99.90
41310;DHT22;27057;51.438;-0.010;2023-09-19T02:43:39;14.10;99.90
41310;DHT22;27057;51.438;-0.010;2023-09-19T02:46:07;14.10;99.90
41310;DHT22;27057;51.438;-0.010;2023-09-19T02:48:34;14.00;99.90
41310;DHT22;27057;51.438;-0.010;2023-09-19T02:51:03;14.10;99.90
41310;DHT22;27057;51.438;-0.010;2023-09-19T02:53:30;14.00;99.90
41310;DHT22;27057;51.438;-0.010;2023-09-19T02:55:59;14.10;99.90
41310;DHT22;27057;51.438;-0.010;2023-09-19T02:58:26;14.00;99.90
41310;DHT22;27057;51.438;-0.010;2023-09-19T03:00:55;14.10;99.90
41310;DHT22;27057;51.438;-0.010;2023-09-19T03:03:24;14.10;99.90
41310;DHT22;27057;51.438;-0.010;2023-09-19T03:05:51;14.10;99.90
41310;DHT22;27057;51.438;-0.010;2023-09-19T03:08:22;14.10;99.90
41310;DHT22;27057;51.438;-0.010;2023-09-19T03:10:50;14.10;99.90
41310;DHT22;27057;51.438;-0.010;2023-09-19T03:13:18;14.20;99.90
41310;DHT22;27057;51.438;-0.010;2023-09-19T03:15:46;14.10;99.90
41310;DHT22;27057;51.438;-0.010;2023-09-19T03:18:17;14.20;99.90
41310;DHT22;27057;51.438;-0.010;2023-09-19T03:20:55;14.10;99.90
41310;DHT22;27057;51.438;-0.010;2023-09-19T03:23:23;14.10;99.90
41310;DHT22;27057;51.438;-0.010;2023-09-19T03:25:51;14.10;99.90
41310;DHT22;27057;51.438;-0.010;2023-09-19T03:28:20;14.10;99.90
41310;DHT22;27057;51.438;-0.010;2023-09-19T03:31:02;14.20;99.90
41310;DHT22;27057;51.438;-0.010;2023-09-19T03:33:32;14.20;99.90
41310;DHT22;27057;51.438;-0.010;2023-09-19T03:36:02;14.20;99.90
41310;DHT22;27057;51.438;-0.010;2023-09-19T03:38:34;14.10;99.90
41310;DHT22;27057;51.438;-0.010;2023-09-19T03:41:02;14.10;99.90
41310;DHT22;27057;51.438;-0.010;2023-09-19T03:43:32;14.10;99.90
41310;DHT22;27057;51.438;-0.010;2023-09-19T03:46:02;14.10;99.90
41310;DHT22;27057;51.438;-0.010;2023-09-19T03:48:32;14.00;99.90
41310;DHT22;27057;51.438;-0.010;2023-09-19T03:51:01;14.00;99.90
41310;DHT22;27057;51.438;-0.010;2023-09-19T03:53:29;14.00;99.90
41310;DHT22;27057;51.438;-0.010;2023-09-19T03:55:57;14.00;99.90
41310;DHT22;27057;51.438;-0.010;2023-09-19T03:58:25;14.00;99.90
41310;DHT22;27057;51.438;-0.010;2023-09-19T04:00:56;13.90;99.90
41310;DHT22;27057;51.438;-0.010;2023-09-19T04:03:24;13.90;99.90
41310;DHT22;27057;51.438;-0.010;2023-09-19T04:06:01;13.90;99.90
41310;DHT22;27057;51.438;-0.010;2023-09-19T04:08:29;13.80;99.90
41310;DHT22;27057;51.438;-0.010;2023-09-19T04:10:57;13.90;99.90
41310;DHT22;27057;51.438;-0.010;2023-09-19T04:13:25;13.80;99.90
41310;DHT22;27057;51.438;-0.010;2023-09-19T04:15:53;13.80;99.90
41310;DHT22;27057;51.438;-0.010;2023-09-19T04:18:20;13.80;99.90
41310;DHT22;27057;51.438;-0.010;2023-09-19T04:20:52;13.80;99.90
41310;DHT22;27057;51.438;-0.010;2023-09-19T04:23:20;13.80;99.90
41310;DHT22;27057;51.438;-0.010;2023-09-19T04:25:48;13.90;99.90
41310;DHT22;27057;51.438;-0.010;2023-09-19T04:28:16;13.90;99.90
41310;DHT22;27057;51.438;-0.010;2023-09-19T04:30:43;13.90;99.90
41310;DHT22;27057;51.438;-0.010;2023-09-19T04:33:11;13.90;99.90
41310;DHT22;27057;51.438;-0.010;2023-09-19T04:35:41;14.00;99.90
41310;DHT22;27057;51.438;-0.010;2023-09-19T04:38:11;13.90;99.90
41310;DHT22;27057;51.438;-0.010;2023-09-19T04:40:39;14.00;99.90
41310;DHT22;27057;51.438;-0.010;2023-09-19T04:43:07;14.00;99.90
41310;DHT22;27057;51.438;-0.010;2023-09-19T04:45:34;14.00;99.90
41310;DHT22;27057;51.438;-0.010;2023-09-19T04:48:02;14.00;99.90
41310;DHT22;27057;51.438;-0.010;2023-09-19T04:50:30;14.10;99.90
41310;DHT22;27057;51.438;-0.010;2023-09-19T04:52:57;14.10;99.90
41310;DHT22;27057;51.438;-0.010;2023-09-19T04:55:24;14.10;99.90
41310;DHT22;27057;51.438;-0.010;2023-09-19T04:57:52;14.00;99.90
41310;DHT22;27057;51.438;-0.010;2023-09-19T05:00:23;14.10;99.90
41310;DHT22;27057;51.438;-0.010;2023-09-19T05:02:51;14.00;99.90
41310;DHT22;27057;51.438;-0.010;2023-09-19T05:05:19;14.10;99.90
41310;DHT22;27057;51.438;-0.010;2023-09-19T05:07:46;14.10;99.90
41310;DHT22;27057;51.438;-0.010;2023-09-19T05:10:14;14.10;99.90
41310;DHT22;27057;51.438;-0.010;2023-09-19T05:12:43;14.20;99.90
41310;DHT22;27057;51.438;-0.010;2023-09-19T05:15:13;14.20;99.90
41310;DHT22;27057;51.438;-0.010;2023-09-19T05:17:42;14.20;99.90
41310;DHT22;27057;51.438;-0.010;2023-09-19T05:20:14;14.20;99.90
41310;DHT22;27057;51.438;-0.010;2023-09-19T05:23:02;14.20;99.90
41310;DHT22;27057;51.438;-0.010;2023-09-19T05:25:31;14.30;99.90
41310;DHT22;27057;51.438;-0.010;2023-09-19T05:28:00;14.30;99.90
41310;DHT22;27057;51.438;-0.010;2023-09-19T05:30:32;14.40;99.90
41310;DHT22;27057;51.438;-0.010;2023-09-19T05:32:59;14.40;99.90
41310;DHT22;27057;51.438;-0.010;2023-09-19T05:35:27;14.40;99.90
41310;DHT22;27057;51.438;-0.010;2023-09-19T05:37:54;14.40;99.90
41310;DHT22;27057;51.438;-0.010;2023-09-19T05:40:23;14.40;99.90
41310;DHT22;27057;51.438;-0.010;2023-09-19T05:42:51;14.40;99.90
41310;DHT22;27057;51.438;-0.010;2023-09-19T05:45:19;14.50;99.90
41310;DHT22;27057;51.438;-0.010;2023-09-19T05:47:50;14.50;99.90
41310;DHT22;27057;51.438;-0.010;2023-09-19T05:50:18;14.60;99.90
41310;DHT22;27057;51.438;-0.010;2023-09-19T05:52:54;14.60;99.90
41310;DHT22;27057;51.438;-0.010;2023-09-19T05:55:23;14.60;99.90
41310;DHT22;27057;51.438;-0.010;2023-09-19T05:57:53;14.60;99.90
41310;DHT22;27057;51.438;-0.010;2023-09-19T06:00:22;14.80;99.90
41310;DHT22;27057;51.438;-0.010;2023-09-19T06:02:57;14.90;99.90
41310;DHT22;27057;51.438;-0.010;2023-09-19T06:05:26;14.90;99.90
41310;DHT22;27057;51.438;-0.010;2023-09-19T06:07:55;15.10;99.90
41310;DHT22;27057;51.438;-0.010;2023-09-19T06:10:22;15.00;99.90
41310;DHT22;27057;51.438;-0.010;2023-09-19T06:12:50;15.10;99.90
41310;DHT22;27057;51.438;-0.010;2023-09-19T06:15:17;15.20;99.90
41310;DHT22;27057;51.438;-0.010;2023-09-19T06:17:52;15.20;99.90
41310;DHT22;27057;51.438;-0.010;2023-09-19T06:20:23;15.30;99.90
41310;DHT22;27057;51.438;-0.010;2023-09-19T06:22:53;15.30;99.90
41310;DHT22;27057;51.438;-0.010;2023-09-19T06:25:21;15.30;99.90
41310;DHT22;27057;51.438;-0.010;2023-09-19T06:27:51;15.40;99.90
41310;DHT22;27057;51.438;-0.010;2023-09-19T06:30:24;15.40;99.90
41310;DHT22;27057;51.438;-0.010;2023-09-19T06:32:57;15.50;99.90
41310;DHT22;27057;51.438;-0.010;2023-09-19T06:35:25;15.50;99.90
41310;DHT22;27057;51.438;-0.010;2023-09-19T06:37:56;15.50;99.90
41310;DHT22;27057;51.438;-0.010;2023-09-19T06:40:25;15.50;99.90
41310;DHT22;27057;51.438;-0.010;2023-09-19T06:42:53;15.50;99.90
41310;DHT22;27057;51.438;-0.010;2023-09-19T06:45:21;15.50;99.90
41310;DHT22;27057;51.438;-0.010;2023-09-19T06:47:50;15.50;99.90
41310;DHT22;27057;51.438;-0.010;2023-09-19T06:50:20;15.40;99.90
41310;DHT22;27057;51.438;-0.010;2023-09-19T06:52:50;15.40;99.90
41310;DHT22;27057;51.438;-0.010;2023-09-19T06:55:19;15.40;99.90
41310;DHT22;27057;51.438;-0.010;2023-09-19T06:57:48;15.50;99.90
41310;DHT22;27057;51.438;-0.010;2023-09-19T07:00:16;15.50;99.90
41310;DHT22;27057;51.438;-0.010;2023-09-19T07:05:30;15.70;99.90
41310;DHT22;27057;51.438;-0.010;2023-09-19T07:07:59;15.70;99.90
41310;DHT22;27057;51.438;-0.010;2023-09-19T07:10:28;15.80;99.90
41310;DHT22;27057;51.438;-0.010;2023-09-19T07:13:00;15.90;99.90
41310;DHT22;27057;51.438;-0.010;2023-09-19T07:15:30;15.90;99.90
41310;DHT22;27057;51.438;-0.010;2023-09-19T07:18:01;15.90;99.90
41310;DHT22;27057;51.438;-0.010;2023-09-19T07:20:28;16.00;99.90
41310;DHT22;27057;51.438;-0.010;2023-09-19T07:22:59;16.00;99.90
41310;DHT22;27057;51.438;-0.010;2023-09-19T07:25:27;16.00;99.90
41310;DHT22;27057;51.438;-0.010;2023-09-19T07:27:56;16.10;99.90
41310;DHT22;27057;51.438;-0.010;2023-09-19T07:30:24;16.20;99.90
41310;DHT22;27057;51.438;-0.010;2023-09-19T07:32:54;16.20;99.90
41310;DHT22;27057;51.438;-0.010;2023-09-19T07:35:22;16.20;99.90
41310;DHT22;27057;51.438;-0.010;2023-09-19T07:37:50;16.20;99.90
41310;DHT22;27057;51.438;-0.010;2023-09-19T07:40:19;16.30;99.90
41310;DHT22;27057;51.438;-0.010;2023-09-19T07:42:48;16.30;99.90
41310;DHT22;27057;51.438;-0.010;2023-09-19T07:45:16;16.40;99.90
41310;DHT22;27057;51.438;-0.010;2023-09-19T07:47:45;16.30;99.90
41310;DHT22;27057;51.438;-0.010;2023-09-19T07:50:14;16.30;99.90
41310;DHT22;27057;51.438;-0.010;2023-09-19T07:52:43;16.40;99.90
41310;DHT22;27057;51.438;-0.010;2023-09-19T07:55:11;16.40;99.90
41310;DHT22;27057;51.438;-0.010;2023-09-19T07:57:38;16.50;99.90
41310;DHT22;27057;51.438;-0.010;2023-09-19T08:00:08;16.50;99.90
41310;DHT22;27057;51.438;-0.010;2023-09-19T08:02:40;16.60;99.90
41310;DHT22;27057;51.438;-0.010;2023-09-19T08:05:09;16.60;99.90
41310;DHT22;27057;51.438;-0.010;2023-09-19T08:07:39;16.60;99.90
41310;DHT22;27057;51.438;-0.010;2023-09-19T08:10:08;16.60;99.90
41310;DHT22;27057;51.438;-0.010;2023-09-19T08:12:35;16.70;99.90
41310;DHT22;27057;51.438;-0.010;2023-09-19T08:15:03;16.60;99.90
41310;DHT22;27057;51.438;-0.010;2023-09-19T08:17:35;16.60;99.90
41310;DHT22;27057;51.438;-0.010;2023-09-19T08:20:03;16.60;99.90
41310;DHT22;27057;51.438;-0.010;2023-09-19T08:22:32;16.60;99.90
41310;DHT22;27057;51.438;-0.010;2023-09-19T08:24:59;16.60;99.90
41310;DHT22;27057;51.438;-0.010;2023-09-19T08:27:29;16.60;99.90
41310;DHT22;27057;51.438;-0.010;2023-09-19T08:29:56;16.60;99.90
41310;DHT22;27057;51.438;-0.010;2023-09-19T08:32:23;16.60;99.90
41310;DHT22;27057;51.438;-0.010;2023-09-19T08:34:53;16.60;99.90
41310;DHT22;27057;51.438;-0.010;2023-09-19T08:37:20;16.50;99.90
41310;DHT22;27057;51.438;-0.010;2023-09-19T08:39:48;16.40;99.90
41310;DHT22;27057;51.438;-0.010;2023-09-19T08:42:16;16.40;99.90
41310;DHT22;27057;51.438;-0.010;2023-09-19T08:44:45;16.40;99.90
41310;DHT22;27057;51.438;-0.010;2023-09-19T08:47:15;16.60;99.90
41310;DHT22;27057;51.438;-0.010;2023-09-19T08:50:08;16.70;99.90
41310;DHT22;27057;51.438;-0.010;2023-09-19T08:52:42;16.90;99.90
41310;DHT22;27057;51.438;-0.010;2023-09-19T08:55:13;17.10;99.90
41310;DHT22;27057;51.438;-0.010;2023-09-19T08:57:49;17.30;99.90
41310;DHT22;27057;51.438;-0.010;2023-09-19T09:00:17;17.40;99.90
41310;DHT22;27057;51.438;-0.010;2023-09-19T09:02:45;17.40;99.90
41310;DHT22;27057;51.438;-0.010;2023-09-19T09:05:14;17.50;99.90
41310;DHT22;27057;51.438;-0.010;2023-09-19T09:07:43;17.70;99.90
41310;DHT22;27057;51.438;-0.010;2023-09-19T09:10:11;17.70;99.90
41310;DHT22;27057;51.438;-0.010;2023-09-19T09:12:39;17.70;99.90
41310;DHT22;27057;51.438;-0.010;2023-09-19T09:15:08;17.90;99.90
41310;DHT22;27057;51.438;-0.010;2023-09-19T09:17:38;17.90;99.90
41310;DHT22;27057;51.438;-0.010;2023-09-19T09:20:06;17.80;99.90
41310;DHT22;27057;51.438;-0.010;2023-09-19T09:22:35;18.00;99.90
41310;DHT22;27057;51.438;-0.010;2023-09-19T09:25:07;18.10;99.90
41310;DHT22;27057;51.438;-0.010;2023-09-19T09:27:35;18.10;99.90
41310;DHT22;27057;51.438;-0.010;2023-09-19T09:30:02;18.10;99.90
41310;DHT22;27057;51.438;-0.010;2023-09-19T09:32:30;18.10;99.90
41310;DHT22;27057;51.438;-0.010;2023-09-19T09:35:07;18.10;99.90
41310;DHT22;27057;51.438;-0.010;2023-09-19T09:37:38;18.10;99.90
41310;DHT22;27057;51.438;-0.010;2023-09-19T09:40:06;18.00;99.90
41310;DHT22;27057;51.438;-0.010;2023-09-19T09:42:39;18.00;99.90
41310;DHT22;27057;51.438;-0.010;2023-09-19T09:45:18;18.00;99.90
41310;DHT22;27057;51.438;-0.010;2023-09-19T09:48:01;18.00;99.90
41310;DHT22;27057;51.438;-0.010;2023-09-19T09:50:48;18.00;99.90
41310;DHT22;27057;51.438;-0.010;2023-09-19T09:53:26;18.00;99.90
41310;DHT22;27057;51.438;-0.010;2023-09-19T09:58:27;18.10;99.90
41310;DHT22;27057;51.438;-0.010;2023-09-19T10:00:59;18.10;99.90
41310;DHT22;27057;51.438;-0.010;2023-09-19T10:03:38;18.00;99.90
41310;DHT22;27057;51.438;-0.010;2023-09-19T10:06:13;18.00;99.90
41310;DHT22;27057;51.438;-0.010;2023-09-19T10:11:43;18.30;99.90
41310;DHT22;27057;51.438;-0.010;2023-09-19T10:14:17;18.50;99.90
41310;DHT22;27057;51.438;-0.010;2023-09-19T10:16:48;18.60;99.90
41310;DHT22;27057;51.438;-0.010;2023-09-19T10:19:21;18.60;99.90
41310;DHT22;27057;51.438;-0.010;2023-09-19T10:21:54;18.50;99.90
41310;DHT22;27057;51.438;-0.010;2023-09-19T10:24:23;18.60;99.90
41310;DHT22;27057;51.438;-0.010;2023-09-19T10:26:54;18.50;99.90
41310;DHT22;27057;51.438;-0.010;2023-09-19T10:29:24;18.40;99.90
41310;DHT22;27057;51.438;-0.010;2023-09-19T10:31:58;18.40;99.90
41310;DHT22;27057;51.438;-0.010;2023-09-19T10:34:28;18.30;99.90
41310;DHT22;27057;51.438;-0.010;2023-09-19T10:36:57;18.40;99.90
41310;DHT22;27057;51.438;-0.010;2023-09-19T10:39:25;18.40;99.90
41310;DHT22;27057;51.438;-0.010;2023-09-19T10:41:55;18.60;99.90
41310;DHT22;27057;51.438;-0.010;2023-09-19T10:44:26;18.60;99.90
41310;DHT22;27057;51.438;-0.010;2023-09-19T10:46:57;18.70;99.90
41310;DHT22;27057;51.438;-0.010;2023-09-19T10:49:25;18.90;99.90
41310;DHT22;27057;51.438;-0.010;2023-09-19T10:51:55;19.00;99.90
41310;DHT22;27057;51.438;-0.010;2023-09-19T10:54:32;19.00;99.90
41310;DHT22;27057;51.438;-0.010;2023-09-19T10:57:01;19.00;99.90
41310;DHT22;27057;51.438;-0.010;2023-09-19T10:59:32;19.10;99.90
41310;DHT22;27057;51.438;-0.010;2023-09-19T11:02:18;19.20;99.90
41310;DHT22;27057;51.438;-0.010;2023-09-19T11:04:46;19.10;99.90
41310;DHT22;27057;51.438;-0.010;2023-09-19T11:07:15;19.20;99.90
41310;DHT22;27057;51.438;-0.010;2023-09-19T11:12:10;19.10;99.90
41310;DHT22;27057;51.438;-0.010;2023-09-19T11:14:39;19.00;99.90
41310;DHT22;27057;51.438;-0.010;2023-09-19T11:20:19;19.00;99.90
41310;DHT22;27057;51.438;-0.010;2023-09-19T11:30:38;18.80;99.90
41310;DHT22;27057;51.438;-0.010;2023-09-19T11:33:20;18.70;99.90
41310;DHT22;27057;51.438;-0.010;2023-09-19T11:36:12;18.70;99.90
41310;DHT22;27057;51.438;-0.010;2023-09-19T11:46:33;18.70;99.90
41310;DHT22;27057;51.438;-0.010;2023-09-19T11:49:08;18.70;99.90
41310;DHT22;27057;51.438;-0.010;2023-09-19T11:51:43;18.70;99.90
41310;DHT22;27057;51.438;-0.010;2023-09-19T11:54:13;18.70;99.90
41310;DHT22;27057;51.438;-0.010;2023-09-19T11:56:46;18.70;99.90
41310;DHT22;27057;51.438;-0.010;2023-09-19T11:59:20;18.60;99.90
41310;DHT22;27057;51.438;-0.010;2023-09-19T12:01:54;18.60;99.90
41310;DHT22;27057;51.438;-0.010;2023-09-19T12:07:14;18.50;99.90
41310;DHT22;27057;51.438;-0.010;2023-09-19T12:09:48;18.40;99.90
41310;DHT22;27057;51.438;-0.010;2023-09-19T12:12:20;18.40;99.90
41310;DHT22;27057;51.438;-0.010;2023-09-19T12:14:51;18.30;99.90
41310;DHT22;27057;51.438;-0.010;2023-09-19T12:17:18;18.40;99.90
41310;DHT22;27057;51.438;-0.010;2023-09-19T12:19:55;18.30;99.90
41310;DHT22;27057;51.438;-0.010;2023-09-19T12:22:22;18.30;99.90
41310;DHT22;27057;51.438;-0.010;2023-09-19T12:24:50;18.30;99.90
41310;DHT22;27057;51.438;-0.010;2023-09-19T12:27:18;18.30;99.90
41310;DHT22;27057;51.438;-0.010;2023-09-19T12:29:47;18.40;99.90
41310;DHT22;27057;51.438;-0.010;2023-09-19T12:32:35;18.30;99.90
41310;DHT22;27057;51.438;-0.010;2023-09-19T12:35:03;18.40;99.90
41310;DHT22;27057;51.438;-0.010;2023-09-19T12:37:34;18.30;99.90
41310;DHT22;27057;51.438;-0.010;2023-09-19T12:40:05;18.30;99.90
41310;DHT22;27057;51.438;-0.010;2023-09-19T12:42:45;18.30;99.90
41310;DHT22;27057;51.438;-0.010;2023-09-19T12:45:14;18.30;99.90
41310;DHT22;27057;51.438;-0.010;2023-09-19T12:48:21;18.30;99.90
41310;DHT22;27057;51.438;-0.010;2023-09-19T12:56:12;18.40;99.90
41310;DHT22;27057;51.438;-0.010;2023-09-19T12:59:13;18.40;99.90
41310;DHT22;27057;51.438;-0.010;2023-09-19T13:01:42;18.40;99.90
41310;DHT22;27057;51.438;-0.010;2023-09-19T13:04:17;18.20;99.90
41310;DHT22;27057;51.438;-0.010;2023-09-19T13:06:53;18.10;99.90
41310;DHT22;27057;51.438;-0.010;2023-09-19T13:09:22;17.90;99.90
41310;DHT22;27057;51.438;-0.010;2023-09-19T13:12:01;17.90;99.90
41310;DHT22;27057;51.438;-0.010;2023-09-19T13:14:30;17.80;99.90
41310;DHT22;27057;51.438;-0.010;2023-09-19T13:17:08;17.70;99.90
41310;DHT22;27057;51.438;-0.010;2023-09-19T13:19:48;17.60;99.90
41310;DHT22;27057;51.438;-0.010;2023-09-19T13:22:36;17.60;99.90
41310;DHT22;27057;51.438;-0.010;2023-09-19T13:25:05;17.50;99.90
41310;DHT22;27057;51.438;-0.010;2023-09-19T13:27:34;17.50;99.90
41310;DHT22;27057;51.438;-0.010;2023-09-19T13:30:01;17.50;99.90
41310;DHT22;27057;51.438;-0.010;2023-09-19T13:32:28;17.50;99.90
41310;DHT22;27057;51.438;-0.010;2023-09-19T13:34:56;17.50;99.90
41310;DHT22;27057;51.438;-0.010;2023-09-19T13:37:25;17.50;99.90
41310;DHT22;27057;51.438;-0.010;2023-09-19T13:39:53;17.50;99.90
41310;DHT22;27057;51.438;-0.010;2023-09-19T13:42:21;17.60;99.90
41310;DHT22;27057;51.438;-0.010;2023-09-19T13:44:48;17.60;99.90
41310;DHT22;27057;51.438;-0.010;2023-09-19T13:47:16;17.70;99.90
41310;DHT22;27057;51.438;-0.010;2023-09-19T13:49:43;17.70;99.90
41310;DHT22;27057;51.438;-0.010;2023-09-19T13:52:11;17.70;99.90
41310;DHT22;27057;51.438;-0.010;2023-09-19T13:54:40;17.80;99.90
41310;DHT22;27057;51.438;-0.010;2023-09-19T13:57:08;17.80;99.90
41310;DHT22;27057;51.438;-0.010;2023-09-19T13:59:37;17.90;99.90
41310;DHT22;27057;51.438;-0.010;2023-09-19T14:02:05;17.90;99.90
41310;DHT22;27057;51.438;-0.010;2023-09-19T14:04:34;17.90;99.90
41310;DHT22;27057;51.438;-0.010;2023-09-19T14:07:02;18.00;99.90
41310;DHT22;27057;51.438;-0.010;2023-09-19T14:09:30;18.00;99.90
41310;DHT22;27057;51.438;-0.010;2023-09-19T14:11:58;18.00;99.90
41310;DHT22;27057;51.438;-0.010;2023-09-19T14:14:27;18.10;99.90
41310;DHT22;27057;51.438;-0.010;2023-09-19T14:16:55;18.20;99.90
41310;DHT22;27057;51.438;-0.010;2023-09-19T14:19:23;18.20;99.90
41310;DHT22;27057;51.438;-0.010;2023-09-19T14:21:51;18.30;99.90
41310;DHT22;27057;51.438;-0.010;2023-09-19T14:24:18;18.40;99.90
41310;DHT22;27057;51.438;-0.010;2023-09-19T14:26:45;18.50;99.90
41310;DHT22;27057;51.438;-0.010;2023-09-19T14:29:13;18.60;99.90
41310;DHT22;27057;51.438;-0.010;2023-09-19T14:31:42;18.60;99.90
41310;DHT22;27057;51.438;-0.010;2023-09-19T14:34:10;18.70;99.90
41310;DHT22;27057;51.438;-0.010;2023-09-19T14:36:38;18.80;99.90
41310;DHT22;27057;51.438;-0.010;2023-09-19T14:39:08;18.80;99.90
41310;DHT22;27057;51.438;-0.010;2023-09-19T14:41:35;18.80;99.90
41310;DHT22;27057;51.438;-0.010;2023-09-19T14:44:03;18.90;99.90
41310;DHT22;27057;51.438;-0.010;2023-09-19T14:46:32;18.90;99.90
41310;DHT22;27057;51.438;-0.010;2023-09-19T14:48:59;18.90;99.90
41310;DHT22;27057;51.438;-0.010;2023-09-19T14:51:29;18.90;99.90
41310;DHT22;27057;51.438;-0.010;2023-09-19T14:53:57;18.90;99.90
41310;DHT22;27057;51.438;-0.010;2023-09-19T14:56:25;18.90;99.90
41310;DHT22;27057;51.438;-0.010;2023-09-19T14:58:52;18.80;99.90
41310;DHT22;27057;51.438;-0.010;2023-09-19T15:01:20;18.80;99.90
41310;DHT22;27057;51.438;-0.010;2023-09-19T15:03:47;18.80;99.90
41310;DHT22;27057;51.438;-0.010;2023-09-19T15:06:17;18.80;99.90
41310;DHT22;27057;51.438;-0.010;2023-09-19T15:08:47;18.80;99.90
41310;DHT22;27057;51.438;-0.010;2023-09-19T15:11:19;18.80;99.90
41310;DHT22;27057;51.438;-0.010;2023-09-19T15:13:50;18.80;99.90
41310;DHT22;27057;51.438;-0.010;2023-09-19T15:16:17;18.80;99.90
41310;DHT22;27057;51.438;-0.010;2023-09-19T15:18:46;18.80;99.90
41310;DHT22;27057;51.438;-0.010;2023-09-19T15:21:15;18.80;99.90
41310;DHT22;27057;51.438;-0.010;2023-09-19T15:23:43;18.80;99.90
41310;DHT22;27057;51.438;-0.010;2023-09-19T15:26:12;18.80;99.90
41310;DHT22;27057;51.438;-0.010;2023-09-19T15:28:40;18.80;99.90
41310;DHT22;27057;51.438;-0.010;2023-09-19T15:31:11;18.90;99.90
41310;DHT22;27057;51.438;-0.010;2023-09-19T15:33:40;18.90;99.90
41310;DHT22;27057;51.438;-0.010;2023-09-19T15:36:08;18.90;99.90
41310;DHT22;27057;51.438;-0.010;2023-09-19T15:38:58;18.80;99.90
41310;DHT22;27057;51.438;-0.010;2023-09-19T15:41:29;18.90;99.90
41310;DHT22;27057;51.438;-0.010;2023-09-19T15:43:58;18.90;99.90
41310;DHT22;27057;51.438;-0.010;2023-09-19T15:46:31;19.00;99.90
41310;DHT22;27057;51.438;-0.010;2023-09-19T15:49:00;18.90;99.90
41310;DHT22;27057;51.438;-0.010;2023-09-19T15:51:28;18.90;99.90
41310;DHT22;27057;51.438;-0.010;2023-09-19T15:53:56;18.90;99.90
41310;DHT22;27057;51.438;-0.010;2023-09-19T15:56:24;18.80;99.90
41310;DHT22;27057;51.438;-0.010;2023-09-19T15:58:53;18.80;99.90
41310;DHT22;27057;51.438;-0.010;2023-09-19T16:01:22;18.70;99.90
41310;DHT22;27057;51.438;-0.010;2023-09-19T16:03:51;18.70;99.90
41310;DHT22;27057;51.438;-0.010;2023-09-19T16:06:30;18.70;99.90
41310;DHT22;27057;51.438;-0.010;2023-09-19T16:08:59;18.60;99.90
41310;DHT22;27057;51.438;-0.010;2023-09-19T16:11:27;18.60;99.90
41310;DHT22;27057;51.438;-0.010;2023-09-19T16:13:56;18.60;99.90
41310;DHT22;27057;51.438;-0.010;2023-09-19T16:16:25;18.60;99.90
41310;DHT22;27057;51.438;-0.010;2023-09-19T16:18:58;18.60;99.90
41310;DHT22;27057;51.438;-0.010;2023-09-19T16:21:30;18.60;99.90
41310;DHT22;27057;51.438;-0.010;2023-09-19T16:23:59;18.60;99.90